Airfield :
LOGIN :

Register | Disclaimer

   EN    FR    IT 

 










Legend :    VFR   Marginal VFR   IFR   Intensive IFR   Very Intensive IFR
Visi :
Ceiling :
>= 8 km
>= 3000ft
5 to 8 km
1000 to 3000 ft
1500m to 5 km
500 to 1000 ft
800 to 1500m
200 to 500 ft
< 800m
< 200 ft
Symbols :   Thunderstorms  Fog  Heavy snow  Heavy precipitations  Wind > 20 kt
SIGMETs :     Misc.  Thunderstorms  Icing  Turbulence  Mountain Waves  Volcanic Ashes






- Airport Elevation : 160 ft
- IATA code : LRT


LFRH - Lorient Lann Bihoue

CURRENT METAR :
  • 142300Z AUTO 31004KT 290V350 CAVOK 14/10 Q1020 NOSIG

EXPIRED METARs :
  • 142230Z AUTO 32005KT 280V350 9999 FEW023 BKN120 OVC150 14/11 Q1020 NOSIG
  • 142200Z AUTO 31005KT 9999 BKN024 BKN072 OVC120 14/11 Q1020 NOSIG
  • 142130Z AUTO 31005KT 9999 BKN025 BKN072 BKN130 14/11 Q1020 NOSIG
  • 142100Z AUTO 31005KT 290V350 9999 FEW022 BKN120 BKN150 14/11 Q1020 NOSIG
  • 142030Z AUTO 32005KT 290V010 CAVOK 14/11 Q1020 NOSIG

TAF AMD TAF LFRH
Valid from the 14 at 19:00 until the 15 at 18:00 UTC


141914Z 1419/1518 33012KT 9999 BKN035
TEMPO 1419/1421 -SHRA SCT030TCU
BECMG 1421/1423 CAVOK
BECMG 1501/1503 SCT014
BECMG 1508/1510 26010KT
TEMPO 1512/1515 26015G25KT
BECMG 1515/1518 32012KT CAVOK



MET'MAP, your aeronautical weather chart ! - Copyright ORBIFLY December 2007 - Disclaimer

ORBIFLY MET'MAP TEAM :

Programming & Development : Alexandra Zaïnal
Concept & original design : Baudouin d'Aumeries
Assistance for programming : Marc-Olivier Méhu
Technical & hardware support : Manuel Goepfert

Contact : metmap@orbifly.com




SOURCES & CREDITS :

   NOAA